IXV weather

Along Airport
Arunachal Pradesh, India

Public forecast

Using degrees Celsius for public forecast. Weather courtesy of forecast.io.

METAR (pilot weather report)

Closest report is Dibrugarh Airport, 43.1 nm (79.7 km) SSE. Retrieved 2019/09/21 09:30 UTC (23 minutes ago):

VEMN 210930Z 11003KT 6000 FEW025 SCT100 34/23 Q1005 NOSIG

TAF (pilot weather forecast)

Forecast is more than 12 hours old.

Retrieved 2019/09/10 06:30 UTC (11 days ago):

TAF VEAN 100330Z 1006/1018 09008KT 6000 SCT020 SCT025 BKN090 TEMPO 1014/1018 3000 TSRA SCT025 FEW030CB BKN090